createdAt,value
2023-01-08T00:02:19.124Z,30.13
2023-01-08T00:07:21.958Z,32.03
2023-01-08T00:12:24.856Z,29.67
2023-01-08T00:17:27.691Z,27.00
2023-01-08T00:22:30.524Z,19.93
2023-01-08T00:27:33.388Z,29.80
2023-01-08T05:31:26.983Z,16.80
2023-01-08T05:36:31.114Z,19.17
2023-01-08T05:41:34.185Z,14.33
2023-01-08T05:46:37.251Z,13.97
2023-01-08T05:51:40.161Z,16.17
2023-01-08T05:56:44.080Z,17.40
2023-01-08T06:01:47.055Z,13.03
2023-01-08T06:06:49.909Z,11.13
2023-01-08T06:11:53.148Z,18.43
2023-01-08T06:16:55.985Z,14.60
2023-01-08T06:21:58.855Z,16.17
2023-01-08T06:27:01.688Z,17.60
2023-01-08T06:32:04.643Z,15.37
2023-01-08T06:37:07.464Z,14.80
2023-01-08T06:42:10.284Z,17.30
2023-01-08T06:47:13.090Z,15.90
2023-01-08T06:52:15.941Z,16.20
2023-01-08T06:57:18.791Z,14.20
2023-01-08T07:02:23.980Z,16.13
2023-01-08T07:07:28.181Z,15.23
2023-01-08T07:12:31.186Z,20.67
2023-01-08T07:17:34.188Z,18.13
2023-01-08T07:22:37.141Z,14.97
2023-01-08T07:27:40.039Z,18.50
2023-01-08T07:32:42.887Z,20.17
2023-01-08T07:37:45.973Z,14.77
2023-01-08T07:42:49.070Z,19.57
2023-01-08T07:47:51.890Z,21.47
2023-01-08T07:53:00.245Z,22.07
2023-01-08T07:58:09.995Z,24.53
2023-01-08T08:03:12.919Z,15.23
2023-01-08T08:08:15.864Z,21.67
2023-01-08T08:13:18.667Z,18.30
2023-01-08T08:18:21.484Z,20.43
2023-01-08T08:23:24.809Z,19.50
2023-01-08T08:28:27.669Z,20.10
2023-01-08T08:33:30.653Z,19.60
2023-01-08T08:38:33.506Z,23.20
2023-01-08T08:43:36.423Z,22.10
2023-01-08T08:48:40.074Z,29.17
2023-01-08T08:53:42.890Z,29.50
2023-01-08T08:58:45.858Z,30.43
2023-01-08T09:03:48.717Z,26.17
2023-01-08T09:08:51.564Z,35.83
2023-01-08T09:13:54.492Z,40.10
2023-01-08T09:18:57.372Z,24.87
2023-01-08T09:24:00.226Z,26.67
2023-01-08T09:29:03.343Z,21.87
2023-01-08T09:34:06.896Z,20.37
2023-01-08T09:39:13.026Z,21.17
2023-01-08T09:44:24.178Z,22.23
2023-01-08T09:49:41.638Z,15.87
2023-01-08T09:54:44.737Z,15.87
2023-01-08T09:59:49.212Z,16.57
2023-01-08T10:05:03.033Z,14.67
2023-01-08T10:10:06.534Z,20.10
2023-01-08T10:15:14.954Z,18.13
2023-01-08T10:20:21.100Z,14.93
2023-01-08T10:25:27.120Z,15.30
2023-01-08T10:30:37.695Z,22.87
2023-01-08T10:35:43.063Z,15.27
2023-01-08T10:40:50.144Z,18.43
2023-01-08T10:46:18.754Z,13.60
2023-01-08T10:51:24.477Z,12.70
2023-01-08T10:56:29.701Z,17.47
2023-01-08T11:01:33.091Z,11.43
2023-01-08T11:06:45.402Z,12.30
2023-01-08T11:11:48.678Z,13.07
2023-01-08T11:16:51.563Z,12.70
2023-01-08T11:22:00.050Z,11.70
2023-01-08T11:27:33.472Z,16.00
2023-01-08T11:32:42.403Z,15.13
2023-01-08T11:38:06.103Z,19.20
2023-01-08T11:43:29.126Z,18.20
2023-01-08T11:48:31.881Z,14.73
2023-01-08T11:53:59.230Z,14.77
2023-01-08T11:59:06.061Z,17.60
2023-01-08T12:04:22.811Z,18.33
2023-01-08T12:09:47.283Z,19.23
2023-01-08T12:14:56.286Z,23.77
2023-01-08T12:20:16.841Z,22.77
2023-01-08T12:25:55.315Z,19.73
2023-01-08T12:31:12.415Z,18.27
2023-01-08T12:36:21.924Z,31.63
2023-01-08T12:41:25.868Z,15.40
2023-01-08T12:46:36.841Z,23.70
2023-01-08T12:52:17.520Z,22.57
2023-01-08T12:57:25.043Z,14.23
2023-01-08T13:02:38.416Z,20.37
2023-01-08T13:07:46.972Z,15.17
2023-01-08T13:12:55.138Z,15.63
2023-01-08T13:18:15.681Z,14.80
2023-01-08T13:23:25.249Z,13.10
2023-01-08T13:28:44.216Z,19.63
2023-01-08T13:33:49.110Z,17.63
2023-01-08T13:39:10.758Z,19.37
2023-01-08T13:44:23.738Z,15.10
2023-01-08T13:49:36.785Z,21.33
2023-01-08T13:54:40.715Z,15.73
2023-01-08T13:59:50.227Z,16.90
2023-01-08T14:04:54.111Z,14.97
2023-01-08T14:10:08.569Z,13.07
2023-01-08T14:15:21.398Z,19.50
2023-01-08T14:20:38.701Z,16.80
2023-01-08T14:25:42.325Z,15.33
2023-01-08T14:30:55.721Z,16.90
2023-01-08T14:35:58.996Z,14.27
2023-01-08T14:41:08.015Z,14.53
2023-01-08T14:46:31.871Z,16.23
2023-01-08T14:51:35.368Z,22.27
2023-01-08T14:56:38.232Z,21.47
2023-01-08T15:01:41.828Z,30.40
2023-01-08T15:06:45.316Z,31.90
2023-01-08T15:11:56.548Z,33.07
2023-01-08T15:17:12.461Z,33.40
2023-01-08T15:22:20.496Z,35.40
2023-01-08T15:27:23.433Z,33.23
2023-01-08T15:32:34.818Z,32.57
2023-01-08T15:37:37.681Z,33.83
2023-01-08T15:42:59.444Z,34.97
2023-01-08T15:48:02.396Z,30.63
2023-01-08T15:53:08.019Z,38.70
2023-01-08T15:58:12.759Z,32.23
2023-01-08T16:03:17.304Z,31.63
2023-01-08T16:08:20.167Z,28.33
2023-01-08T16:13:22.995Z,31.10
2023-01-08T16:18:25.836Z,26.37
2023-01-08T16:23:28.656Z,30.90
2023-01-08T16:28:31.506Z,33.13
2023-01-08T16:33:34.966Z,31.13
2023-01-08T16:38:38.052Z,31.60
2023-01-08T16:43:42.993Z,41.93
2023-01-08T16:48:49.139Z,32.60
2023-01-08T16:53:52.193Z,42.57
2023-01-08T16:58:55.206Z,37.47
2023-01-08T17:04:00.415Z,39.83
2023-01-08T17:09:04.285Z,35.47
2023-01-08T17:14:07.336Z,45.23
2023-01-08T17:19:10.217Z,37.37
2023-01-08T17:24:13.243Z,35.80
2023-01-08T17:29:16.154Z,39.80
2023-01-08T17:34:19.058Z,45.17
2023-01-08T17:39:21.899Z,36.23
2023-01-08T17:44:26.626Z,39.97
2023-01-08T17:49:31.149Z,36.83
2023-01-08T17:54:34.025Z,28.13
2023-01-08T17:59:37.330Z,31.60
2023-01-08T18:04:40.887Z,30.33
2023-01-08T18:09:44.839Z,31.37
2023-01-08T18:14:47.803Z,26.17
2023-01-08T18:19:50.932Z,20.73
2023-01-08T18:24:54.001Z,29.20
2023-01-08T18:29:56.852Z,25.63
2023-01-08T18:34:59.844Z,24.27
2023-01-08T18:40:02.834Z,30.53
2023-01-08T18:45:06.073Z,37.03
2023-01-08T18:50:10.421Z,32.87
2023-01-08T18:55:13.499Z,30.47
2023-01-08T19:00:16.809Z,52.67
2023-01-08T19:05:19.823Z,77.87
2023-01-08T19:10:22.839Z,43.07
2023-01-08T19:15:25.906Z,44.87
2023-01-08T19:20:29.069Z,36.93
2023-01-08T19:25:32.144Z,32.90
2023-01-08T19:30:35.431Z,35.03
2023-01-08T19:35:41.567Z,33.23
2023-01-08T19:40:46.180Z,32.80
2023-01-08T19:45:49.272Z,30.00
2023-01-08T19:50:52.353Z,32.30
2023-01-08T19:55:55.200Z,29.73
2023-01-08T20:00:58.091Z,35.97
2023-01-08T20:06:04.813Z,31.73
2023-01-08T20:11:09.678Z,26.10
2023-01-08T20:16:15.109Z,38.73
2023-01-08T20:21:24.186Z,33.40
2023-01-08T20:26:28.247Z,37.13
2023-01-08T20:31:33.132Z,36.40
2023-01-08T20:36:38.114Z,35.67
2023-01-08T20:41:46.621Z,37.73
2023-01-08T20:46:58.643Z,40.83
2023-01-08T20:52:01.822Z,31.70
2023-01-08T20:57:05.073Z,31.40
2023-01-08T21:02:08.021Z,33.47
2023-01-08T21:07:10.991Z,30.00
2023-01-08T21:12:15.194Z,31.20
2023-01-08T21:17:18.207Z,36.17
2023-01-08T21:22:21.047Z,39.33
2023-01-08T21:27:24.160Z,42.10
2023-01-08T21:32:27.138Z,36.70
2023-01-08T21:37:32.917Z,33.93
2023-01-08T21:42:59.541Z,34.73
2023-01-08T21:48:02.658Z,29.43
2023-01-08T21:53:23.935Z,39.67
2023-01-08T21:58:27.995Z,34.70
2023-01-08T22:03:30.849Z,31.10
2023-01-08T22:08:34.211Z,31.10
2023-01-08T22:13:39.120Z,29.30
2023-01-08T22:18:42.080Z,31.40
2023-01-08T22:23:44.931Z,28.47
2023-01-08T22:28:47.829Z,30.70
2023-01-08T22:33:54.379Z,27.40
2023-01-08T22:38:57.378Z,30.80
2023-01-08T22:44:00.339Z,27.20
2023-01-08T22:49:03.285Z,26.70
2023-01-08T22:54:06.119Z,24.87
2023-01-08T22:59:08.979Z,26.77
2023-01-08T23:04:11.971Z,26.73
2023-01-08T23:09:14.924Z,29.37
2023-01-08T23:14:17.918Z,31.87
2023-01-08T23:19:20.738Z,30.13
2023-01-08T23:24:23.567Z,28.20
2023-01-08T23:29:29.756Z,32.37
2023-01-08T23:34:32.620Z,34.40
2023-01-08T23:39:35.662Z,26.40
2023-01-08T23:44:38.633Z,26.57
2023-01-08T23:49:41.632Z,28.67
2023-01-08T23:54:44.511Z,28.87
2023-01-08T23:59:47.880Z,30.73
